Time;durP1;ratioP1;P1;durP2;ratioP2;P2;SDS_P1;SDS_P2;PMS_P1;PMS_P2;Temp;Humidity;BMP_temperature;BMP_pressure;BME280_temperature;BME280_humidity;BME280_pressure;Samples;Min_cycle;Max_cycle;Signal;HPM_P1;HPM_P2
2021/11/06 00:01:26;;;;;;;9.80;7.08;;;;;;;9.12;85.25;95208.58;1690582;83;21089;-61
2021/11/06 00:03:53;;;;;;;7.75;6.90;;;;;;;9.12;84.99;95216.23;1701633;83;21039;-60
2021/11/06 00:06:20;;;;;;;8.05;6.40;;;;;;;9.10;84.96;95206.87;1697620;83;21122;-61
2021/11/06 00:08:49;;;;;;;8.93;6.97;;;;;;;9.08;85.24;95205.16;1700613;83;21016;-60
2021/11/06 00:11:16;;;;;;;9.18;7.17;;;;;;;9.09;85.35;95210.81;1692993;83;20970;-60
2021/11/06 00:13:44;;;;;;;8.68;7.72;;;;;;;9.09;85.35;95195.72;1696319;83;21103;-60
2021/11/06 00:16:11;;;;;;;11.38;8.35;;;;;;;9.12;85.20;95203.09;1689995;83;21056;-60
2021/11/06 00:18:38;;;;;;;9.18;7.00;;;;;;;9.05;85.20;95207.38;1713121;83;21508;-60
2021/11/06 00:21:05;;;;;;;14.23;7.10;;;;;;;9.02;85.45;95215.07;1701394;82;20969;-60
2021/11/06 00:23:32;;;;;;;12.07;8.18;;;;;;;9.01;85.51;95210.78;1704244;83;21087;-60
2021/11/06 00:26:00;;;;;;;13.15;9.38;;;;;;;8.98;85.78;95193.22;1692267;83;20992;-62
2021/11/06 00:28:27;;;;;;;12.98;9.15;;;;;;;9.01;86.06;95184.13;1698772;83;21091;-60
2021/11/06 00:30:53;;;;;;;11.75;8.55;;;;;;;9.03;85.79;95211.16;1704426;83;21201;-60
2021/11/06 00:33:20;;;;;;;12.43;8.45;;;;;;;9.00;85.77;95203.16;1696978;83;21517;-61
2021/11/06 00:35:46;;;;;;;12.05;8.80;;;;;;;9.01;85.92;95205.30;1674178;85;21451;-60
2021/11/06 00:38:15;;;;;;;11.28;7.83;;;;;;;9.01;86.13;95234.11;1694733;83;20998;-61
2021/11/06 00:40:42;;;;;;;12.18;7.72;;;;;;;9.01;85.92;95257.43;1711613;82;21489;-61
2021/11/06 00:43:10;;;;;;;10.82;7.42;;;;;;;8.98;85.76;95266.52;1697420;83;21448;-60
2021/11/06 00:45:36;;;;;;;8.50;6.50;;;;;;;8.94;85.81;95276.22;1703922;83;21091;-61
2021/11/06 00:48:04;;;;;;;7.08;6.37;;;;;;;8.97;85.88;95263.02;1706785;83;21145;-61
2021/11/06 00:50:30;;;;;;;7.60;6.50;;;;;;;9.05;86.21;95265.02;1699439;83;21543;-60
2021/11/06 00:52:58;;;;;;;9.78;7.95;;;;;;;9.08;85.76;95271.02;1699312;83;20976;-60
2021/11/06 00:55:25;;;;;;;13.08;8.35;;;;;;;9.08;85.64;95273.77;1708277;84;21817;-60
2021/11/06 00:57:52;;;;;;;9.85;8.68;;;;;;;9.09;85.57;95271.20;1695738;83;21040;-60
2021/11/06 01:00:20;;;;;;;8.33;7.30;;;;;;;9.11;85.50;95274.28;1719185;82;21015;-61
2021/11/06 01:02:47;;;;;;;10.53;7.65;;;;;;;9.11;85.53;95268.80;1706632;82;20993;-60
2021/11/06 01:05:15;;;;;;;9.70;7.83;;;;;;;9.12;85.68;95269.75;1701568;83;21069;-61
2021/11/06 01:07:43;;;;;;;9.10;7.33;;;;;;;9.15;85.70;95269.48;1701265;83;21170;-60
2021/11/06 01:10:13;;;;;;;10.23;8.15;;;;;;;9.17;85.72;95270.62;1708214;83;21023;-61
2021/11/06 01:12:41;;;;;;;7.53;6.62;;;;;;;9.18;85.62;95261.19;1712772;83;21555;-61
2021/11/06 01:15:10;;;;;;;9.88;7.37;;;;;;;9.18;85.40;95268.05;1695931;83;21032;-61
2021/11/06 01:17:37;;;;;;;9.50;7.03;;;;;;;9.09;85.58;95254.73;1686543;83;21014;-60
2021/11/06 01:20:06;;;;;;;10.32;7.67;;;;;;;9.08;85.97;95251.20;1696369;83;21145;-60
2021/11/06 01:22:33;;;;;;;11.70;8.68;;;;;;;9.09;85.89;95258.84;1693489;83;21514;-60
2021/11/06 01:25:03;;;;;;;15.85;10.18;;;;;;;9.00;85.87;95253.14;1695957;83;21101;-60
2021/11/06 01:27:30;;;;;;;9.98;7.75;;;;;;;8.92;85.90;95253.89;1712636;83;21532;-60
2021/11/06 01:29:57;;;;;;;8.05;6.85;;;;;;;8.88;86.28;95261.25;1696774;83;20972;-59
2021/11/06 01:32:24;;;;;;;7.40;6.58;;;;;;;8.86;86.39;95260.32;1708069;83;21480;-60
2021/11/06 01:34:52;;;;;;;7.00;6.28;;;;;;;8.83;86.54;95261.14;1700287;83;21158;-61
2021/11/06 01:37:19;;;;;;;9.18;7.78;;;;;;;8.76;86.50;95261.30;1693053;83;21444;-60
2021/11/06 01:39:46;;;;;;;8.65;7.28;;;;;;;8.71;86.81;95272.77;1715555;82;21055;-60
2021/11/06 01:42:13;;;;;;;11.68;9.18;;;;;;;8.71;86.98;95271.40;1715177;82;21058;-61
2021/11/06 01:44:39;;;;;;;12.20;9.20;;;;;;;8.74;85.98;95265.65;1695037;83;21946;-60
2021/11/06 01:47:09;;;;;;;11.85;9.43;;;;;;;8.77;84.91;95266.95;1705621;83;21077;-59
2021/11/06 01:49:35;;;;;;;9.93;8.95;;;;;;;8.76;83.96;95267.39;1699835;82;21049;-60
2021/11/06 01:52:03;;;;;;;11.05;9.28;;;;;;;8.66;82.16;95277.97;1686697;83;21530;-60
2021/11/06 01:54:30;;;;;;;11.28;8.93;;;;;;;8.58;81.97;95289.67;1702715;83;21536;-60
2021/11/06 01:56:57;;;;;;;9.13;8.00;;;;;;;8.58;82.18;95289.67;1712106;83;21184;-61
2021/11/06 01:59:24;;;;;;;13.88;9.83;;;;;;;8.60;82.18;95292.77;1700742;83;21060;-60
2021/11/06 02:01:52;;;;;;;13.18;11.03;;;;;;;8.61;81.97;95303.15;1701462;83;21109;-61
2021/11/06 02:04:19;;;;;;;12.47;10.63;;;;;;;8.56;80.09;95293.44;1700141;83;21099;-59
2021/11/06 02:06:45;;;;;;;14.95;10.23;;;;;;;8.47;78.99;95293.20;1683787;83;20971;-61
2021/11/06 02:09:12;;;;;;;17.67;12.53;;;;;;;8.42;78.62;95294.30;1696783;83;21090;-60
2021/11/06 02:11:40;;;;;;;13.53;11.15;;;;;;;8.36;78.20;95295.38;1695000;83;21537;-59
2021/11/06 02:14:07;;;;;;;16.15;11.93;;;;;;;8.30;77.97;95301.17;1692607;82;21007;-59
2021/11/06 02:16:36;;;;;;;15.08;13.15;;;;;;;8.28;77.93;95302.77;1704827;82;21026;-61
2021/11/06 02:19:03;;;;;;;16.75;12.33;;;;;;;8.26;77.51;95309.27;1692068;83;21140;-61
2021/11/06 02:21:34;;;;;;;14.05;11.48;;;;;;;8.22;77.89;95303.84;1702903;82;21816;-60
2021/11/06 02:23:59;;;;;;;14.68;11.38;;;;;;;8.18;78.37;95318.80;1697655;83;21020;-60
2021/11/06 02:26:26;;;;;;;12.93;11.30;;;;;;;8.16;79.36;95323.31;1697989;83;21452;-60
2021/11/06 02:28:56;;;;;;;14.70;11.48;;;;;;;8.16;79.93;95329.37;1706200;83;21055;-60
2021/11/06 02:31:23;;;;;;;14.38;11.38;;;;;;;8.22;80.12;95324.40;1695143;83;21086;-60
2021/11/06 02:33:51;;;;;;;14.68;12.68;;;;;;;8.24;80.08;95327.50;1699620;83;21151;-59
2021/11/06 02:36:18;;;;;;;17.30;13.65;;;;;;;8.25;80.40;95322.80;1706294;83;20953;-60
2021/11/06 02:38:44;;;;;;;20.37;13.88;;;;;;;8.27;80.22;95328.02;1716343;83;21019;-61
2021/11/06 02:41:11;;;;;;;18.32;14.68;;;;;;;8.31;79.60;95335.62;1696003;83;22463;-60
2021/11/06 02:43:39;;;;;;;21.12;14.25;;;;;;;8.34;79.15;95336.14;1704289;83;20976;-59
2021/11/06 02:46:06;;;;;;;22.22;14.15;;;;;;;8.34;78.67;95336.14;1680028;83;21768;-60
2021/11/06 02:48:33;;;;;;;17.25;12.90;;;;;;;8.36;78.65;95345.30;1693647;83;21024;-59
2021/11/06 02:51:00;;;;;;;23.20;15.95;;;;;;;8.37;78.89;95336.67;1700058;83;20969;-60
2021/11/06 02:53:27;;;;;;;20.43;15.03;;;;;;;8.34;78.97;95338.89;1694751;83;21532;-60
2021/11/06 02:55:54;;;;;;;17.20;11.97;;;;;;;8.31;79.17;95342.47;1690419;83;21020;-59
2021/11/06 02:58:20;;;;;;;18.50;13.28;;;;;;;8.27;79.78;95336.86;1699242;83;21048;-60
2021/11/06 03:00:47;;;;;;;16.35;12.45;;;;;;;8.24;80.57;95341.81;1702875;83;20965;-60
2021/11/06 03:03:14;;;;;;;17.67;12.70;;;;;;;8.25;81.02;95341.98;1711085;83;21488;-59
2021/11/06 03:05:42;;;;;;;17.02;12.43;;;;;;;8.26;81.17;95351.76;1697488;83;21047;-60
2021/11/06 03:08:08;;;;;;;19.27;14.53;;;;;;;8.22;81.42;95351.05;1702977;83;20953;-60
2021/11/06 03:10:35;;;;;;;16.20;12.25;;;;;;;8.19;81.75;95352.65;1703064;83;21131;-58
2021/11/06 03:13:03;;;;;;;20.92;13.58;;;;;;;8.20;82.00;95347.92;1681624;84;21059;-60
2021/11/06 03:15:30;;;;;;;16.30;11.65;;;;;;;8.15;82.40;95356.60;1696375;83;21724;-61
2021/11/06 03:17:56;;;;;;;16.65;12.03;;;;;;;8.14;82.54;95355.84;1679736;83;21004;-60
2021/11/06 03:20:25;;;;;;;18.30;11.55;;;;;;;8.07;82.92;95347.72;1700575;83;21235;-60
2021/11/06 03:22:57;;;;;;;13.88;11.70;;;;;;;8.05;83.42;95347.36;1700208;83;21105;-59
2021/11/06 03:25:20;;;;;;;18.80;12.58;;;;;;;8.02;83.70;95353.67;1693545;83;21087;-61
2021/11/06 03:27:47;;;;;;;15.95;12.03;;;;;;;8.01;83.81;95352.13;1690441;83;21444;-61
2021/11/06 03:30:14;;;;;;;15.15;12.05;;;;;;;8.02;84.11;95359.16;1694081;83;21555;-60
2021/11/06 03:32:42;;;;;;;15.95;12.53;;;;;;;8.06;84.17;95359.11;1720975;83;21523;-60
2021/11/06 03:35:09;;;;;;;14.85;12.47;;;;;;;8.08;84.51;95356.11;1696951;83;21145;-60
2021/11/06 03:37:36;;;;;;;16.77;13.13;;;;;;;8.10;84.48;95352.97;1687483;83;21077;-61
2021/11/06 03:40:04;;;;;;;17.42;11.90;;;;;;;8.12;84.38;95368.40;1689749;83;21071;-59
2021/11/06 03:42:31;;;;;;;15.28;12.60;;;;;;;8.13;84.46;95367.99;1694458;83;21046;-61
2021/11/06 03:44:58;;;;;;;15.75;13.08;;;;;;;8.14;84.33;95386.56;1717578;83;21015;-61
2021/11/06 03:47:25;;;;;;;15.98;12.47;;;;;;;8.13;84.23;95390.50;1691277;83;21257;-60
2021/11/06 03:49:52;;;;;;;17.12;13.38;;;;;;;8.11;84.48;95405.97;1704942;83;21027;-61
2021/11/06 03:52:18;;;;;;;16.73;12.90;;;;;;;8.09;84.55;95402.88;1710003;83;21441;-60
2021/11/06 03:54:45;;;;;;;16.35;13.38;;;;;;;8.11;84.63;95395.02;1688061;83;21075;-61
2021/11/06 03:57:12;;;;;;;18.45;14.07;;;;;;;8.14;84.75;95390.09;1708268;83;21027;-59
2021/11/06 03:59:39;;;;;;;18.37;13.18;;;;;;;8.15;84.66;95389.48;1702185;83;21144;-59
2021/11/06 04:02:06;;;;;;;19.55;12.43;;;;;;;8.22;84.68;95381.95;1687431;83;21512;-61
2021/11/06 04:04:34;;;;;;;17.87;13.35;;;;;;;8.24;84.41;95387.03;1695724;83;21028;-61
2021/11/06 04:07:01;;;;;;;19.32;14.63;;;;;;;8.23;84.79;95397.21;1693769;82;21076;-61
2021/11/06 04:09:28;;;;;;;21.20;15.72;;;;;;;8.29;84.48;95392.03;1687006;83;21042;-60
2021/11/06 04:11:55;;;;;;;21.75;15.88;;;;;;;8.27;84.22;95387.57;1700272;83;21096;-60
2021/11/06 04:14:22;;;;;;;18.42;14.28;;;;;;;8.27;84.05;95392.44;1694151;83;21195;-60
2021/11/06 04:16:49;;;;;;;19.48;14.87;;;;;;;8.30;84.19;95401.23;1687878;83;21436;-60
2021/11/06 04:19:16;;;;;;;23.92;15.40;;;;;;;8.34;83.86;95394.30;1716603;83;21083;-61
2021/11/06 04:21:42;;;;;;;20.97;15.32;;;;;;;8.28;83.71;95395.36;1709282;82;21076;-60
2021/11/06 04:24:09;;;;;;;26.70;19.65;;;;;;;8.25;83.75;95394.83;1699517;83;21100;-60
2021/11/06 04:26:36;;;;;;;31.97;25.10;;;;;;;8.21;83.88;95393.36;1701435;83;20959;-60
2021/11/06 04:29:03;;;;;;;25.12;18.55;;;;;;;8.18;84.07;95389.47;1698523;84;21063;-60
2021/11/06 04:31:30;;;;;;;23.32;14.78;;;;;;;8.23;84.14;95397.83;1709835;83;21056;-60
2021/11/06 04:33:57;;;;;;;22.22;16.05;;;;;;;8.23;84.19;95401.94;1699894;83;20976;-60
2021/11/06 04:36:23;;;;;;;26.73;16.65;;;;;;;8.19;84.39;95397.87;1700946;83;21180;-61
2021/11/06 04:38:50;;;;;;;21.77;15.30;;;;;;;8.16;84.46;95410.22;1704058;83;20966;-61
2021/11/06 04:41:16;;;;;;;20.25;14.03;;;;;;;8.10;84.61;95411.28;1707241;83;20980;-60
2021/11/06 04:43:44;;;;;;;23.62;15.28;;;;;;;8.11;84.86;95412.83;1701700;83;21510;-61
2021/11/06 04:46:10;;;;;;;22.50;15.08;;;;;;;8.15;84.96;95408.67;1714667;83;21083;-61
2021/11/06 04:48:39;;;;;;;23.42;15.65;;;;;;;8.18;84.90;95415.51;1698673;83;21136;-60
2021/11/06 04:51:06;;;;;;;24.07;17.30;;;;;;;8.19;84.96;95423.91;1707183;83;20964;-61
2021/11/06 04:53:32;;;;;;;24.00;16.32;;;;;;;8.25;85.35;95433.81;1709986;83;21070;-60
2021/11/06 04:56:00;;;;;;;19.75;14.23;;;;;;;8.33;85.35;95436.61;1697569;83;20996;-60
2021/11/06 04:58:26;;;;;;;17.05;13.43;;;;;;;8.40;84.89;95429.05;1687130;83;21143;-60
2021/11/06 05:00:54;;;;;;;20.70;15.32;;;;;;;8.42;84.64;95428.64;1698458;83;21166;-61
2021/11/06 05:03:21;;;;;;;23.20;16.45;;;;;;;8.41;84.48;95436.08;1690839;83;21595;-61
2021/11/06 05:05:48;;;;;;;22.13;17.10;;;;;;;8.37;84.52;95443.59;1700347;83;20961;-62
2021/11/06 05:08:15;;;;;;;26.93;18.40;;;;;;;8.38;84.55;95450.63;1704424;83;21094;-61
2021/11/06 05:10:42;;;;;;;24.45;15.83;;;;;;;8.36;84.50;95451.64;1701273;83;21026;-61
2021/11/06 05:13:09;;;;;;;23.77;16.27;;;;;;;8.34;84.64;95471.84;1717546;83;21151;-60
2021/11/06 05:15:36;;;;;;;22.42;17.00;;;;;;;8.35;84.52;95483.56;1702245;83;21047;-61
2021/11/06 05:18:04;;;;;;;20.12;14.28;;;;;;;8.34;84.94;95476.53;1700211;83;21016;-61
2021/11/06 05:20:33;;;;;;;26.68;17.20;;;;;;;8.40;84.86;95479.01;1690009;83;21541;-61
2021/11/06 05:23:02;;;;;;;23.75;16.12;;;;;;;8.36;84.60;95479.64;1689515;83;21553;-61
2021/11/06 05:25:29;;;;;;;24.63;17.12;;;;;;;8.29;84.59;95473.66;1693675;83;21150;-62
2021/11/06 05:27:56;;;;;;;28.87;17.82;;;;;;;8.29;84.70;95477.77;1696950;83;21014;-61
2021/11/06 05:30:22;;;;;;;25.27;17.65;;;;;;;8.27;84.56;95476.05;1696296;83;21029;-63
2021/11/06 05:32:49;;;;;;;24.37;17.67;;;;;;;8.27;84.78;95480.77;1708483;83;21035;-61
2021/11/06 05:35:18;;;;;;;28.98;18.73;;;;;;;8.26;84.64;95473.13;1707405;83;20981;-61
2021/11/06 05:37:45;;;;;;;24.25;17.98;;;;;;;8.21;84.49;95474.97;1702182;83;21198;-61
2021/11/06 05:40:12;;;;;;;23.77;16.62;;;;;;;8.16;84.51;95478.16;1655553;83;21059;-61
2021/11/06 05:42:40;;;;;;;22.07;15.98;;;;;;;8.12;84.68;95485.66;1718898;83;21057;-60
2021/11/06 05:45:07;;;;;;;21.45;17.23;;;;;;;8.14;84.50;95492.86;1720217;83;21067;-62
2021/11/06 05:47:35;;;;;;;27.50;18.95;;;;;;;8.15;84.31;95488.14;1698460;83;21117;-60
2021/11/06 05:50:03;;;;;;;23.30;16.70;;;;;;;8.13;84.23;95473.50;1696923;83;21190;-62
2021/11/06 05:52:31;;;;;;;25.80;16.70;;;;;;;8.09;84.40;95479.61;1662457;83;21571;-61
2021/11/06 05:54:58;;;;;;;23.73;17.32;;;;;;;8.07;84.58;95488.84;1706650;83;21043;-60
2021/11/06 05:57:25;;;;;;;27.25;18.50;;;;;;;8.10;84.83;95493.48;1709186;83;21092;-61
2021/11/06 05:59:52;;;;;;;25.72;18.98;;;;;;;8.12;84.70;95497.20;1696158;83;21607;-61
2021/11/06 06:02:18;;;;;;;25.80;17.98;;;;;;;8.12;84.89;95499.36;1694814;83;21138;-62
2021/11/06 06:04:46;;;;;;;28.02;19.17;;;;;;;8.13;85.00;95502.28;1711282;83;21004;-62
2021/11/06 06:07:13;;;;;;;24.92;18.80;;;;;;;8.15;84.96;95518.30;1699327;83;21061;-61
2021/11/06 06:09:41;;;;;;;25.45;17.62;;;;;;;8.14;84.66;95516.73;1703135;83;21031;-61
2021/11/06 06:12:09;;;;;;;28.10;18.07;;;;;;;8.11;84.97;95504.63;1676719;83;21159;-61
2021/11/06 06:14:36;;;;;;;25.72;17.55;;;;;;;8.16;84.79;95499.29;1696888;83;21280;-61
2021/11/06 06:17:04;;;;;;;27.10;16.93;;;;;;;8.22;84.69;95512.77;1704165;83;21012;-63
2021/11/06 06:19:31;;;;;;;24.20;17.98;;;;;;;8.25;84.74;95526.39;1696807;83;21621;-61
2021/11/06 06:21:58;;;;;;;32.23;18.73;;;;;;;8.31;84.46;95529.45;1709427;82;21517;-64
2021/11/06 06:24:25;;;;;;;25.02;18.25;;;;;;;8.27;84.22;95536.95;1704428;83;21048;-62
2021/11/06 06:26:52;;;;;;;47.20;23.30;;;;;;;8.23;84.25;95544.46;1681560;83;21846;-61
2021/11/06 06:29:18;;;;;;;45.85;23.05;;;;;;;8.19;84.42;95536.28;1689414;83;21112;-63
2021/11/06 06:31:45;;;;;;;34.18;21.27;;;;;;;8.18;84.41;95547.06;1704149;83;21195;-61
2021/11/06 06:34:11;;;;;;;27.40;18.48;;;;;;;8.17;84.67;95547.43;1702847;83;21092;-62
2021/11/06 06:36:40;;;;;;;26.35;17.20;;;;;;;8.15;84.46;95548.44;1681339;83;21031;-63
2021/11/06 06:39:07;;;;;;;25.23;17.57;;;;;;;8.10;84.47;95545.55;1697409;83;21168;-63
2021/11/06 06:41:33;;;;;;;33.30;20.97;;;;;;;8.05;84.59;95556.98;1702265;83;21102;-63
2021/11/06 06:44:00;;;;;;;28.65;20.15;;;;;;;8.03;84.87;95556.62;1658453;85;21000;-63
2021/11/06 06:46:27;;;;;;;30.77;20.43;;;;;;;8.11;85.04;95555.94;1645186;86;21110;-62
2021/11/06 06:48:54;;;;;;;26.10;18.80;;;;;;;8.15;85.19;95559.40;1656639;86;21031;-63
2021/11/06 06:51:22;;;;;;;26.25;19.10;;;;;;;8.23;85.16;95567.16;1656322;86;22021;-62
2021/11/06 06:53:48;;;;;;;28.10;18.65;;;;;;;8.25;84.96;95564.02;1655956;86;21084;-62
2021/11/06 06:56:15;;;;;;;25.70;17.42;;;;;;;8.32;84.78;95570.17;1656127;86;21062;-62
2021/11/06 06:58:42;;;;;;;27.60;17.70;;;;;;;8.42;84.26;95573.96;1656321;86;21078;-63
2021/11/06 07:01:08;;;;;;;28.57;20.35;;;;;;;8.48;83.93;95570.92;1656201;86;21034;-62
2021/11/06 07:03:35;;;;;;;33.18;21.70;;;;;;;8.50;83.64;95573.45;1656321;86;21154;-63
2021/11/06 07:06:03;;;;;;;24.72;17.80;;;;;;;8.51;83.82;95567.35;1656107;86;21038;-62
2021/11/06 07:08:30;;;;;;;31.75;21.40;;;;;;;8.57;83.41;95557.46;1656234;86;21058;-63
2021/11/06 07:10:58;;;;;;;24.02;17.87;;;;;;;8.56;83.18;95566.30;1656292;86;21037;-62
2021/11/06 07:13:24;;;;;;;23.80;15.53;;;;;;;8.63;83.19;95569.54;1656233;86;21063;-62
2021/11/06 07:15:52;;;;;;;20.55;16.02;;;;;;;8.71;82.69;95562.16;1654928;86;21172;-64
2021/11/06 07:18:19;;;;;;;18.77;15.00;;;;;;;8.76;82.44;95562.30;1656098;86;20995;-63
2021/11/06 07:20:46;;;;;;;20.62;14.58;;;;;;;8.78;82.27;95564.78;1656097;84;21006;-63
2021/11/06 07:23:13;;;;;;;23.07;14.98;;;;;;;8.83;82.06;95564.92;1656030;86;21099;-64
2021/11/06 07:25:39;;;;;;;24.37;15.98;;;;;;;8.86;81.54;95568.98;1652281;86;21501;-62
2021/11/06 07:28:07;;;;;;;24.72;17.40;;;;;;;8.84;80.92;95570.58;1657008;86;21146;-63
2021/11/06 07:30:34;;;;;;;22.95;14.75;;;;;;;8.81;80.71;95563.95;1656261;86;21039;-63
2021/11/06 07:33:01;;;;;;;22.17;16.17;;;;;;;8.85;80.85;95564.69;1656235;86;21006;-62
2021/11/06 07:35:27;;;;;;;27.98;18.27;;;;;;;8.89;80.69;95565.41;1655996;86;21087;-62
2021/11/06 07:37:54;;;;;;;23.80;15.78;;;;;;;8.88;80.24;95561.11;1656209;86;21059;-64
2021/11/06 07:40:22;;;;;;;23.92;16.12;;;;;;;8.90;80.23;95568.33;1654438;86;21159;-63
2021/11/06 07:42:49;;;;;;;27.60;17.62;;;;;;;8.91;79.94;95572.02;1633076;86;21403;-62
2021/11/06 07:45:18;;;;;;;26.70;16.20;;;;;;;8.90;79.72;95570.46;1655209;86;21094;-64
2021/11/06 07:47:45;;;;;;;27.00;16.55;;;;;;;8.96;80.02;95568.81;1654783;86;21654;-63
2021/11/06 07:50:13;;;;;;;25.02;14.23;;;;;;;9.02;79.89;95569.09;1634750;86;21090;-64
2021/11/06 07:52:40;;;;;;;29.07;17.30;;;;;;;9.05;79.61;95571.03;1610493;86;21874;-63
2021/11/06 07:55:08;;;;;;;31.15;19.50;;;;;;;9.03;79.45;95578.30;1640982;86;21038;-63
2021/11/06 07:57:35;;;;;;;43.23;25.23;;;;;;;9.05;79.60;95573.78;1655571;86;21030;-64
2021/11/06 08:00:09;;;;;;;28.10;18.77;;;;;;;9.13;79.37;95580.11;1650429;86;21125;-65
2021/11/06 08:02:39;;;;;;;23.22;16.67;;;;;;;9.23;79.30;95576.39;1653509;86;21124;-64
2021/11/06 08:05:08;;;;;;;18.85;14.07;;;;;;;9.32;79.01;95572.53;1633453;86;21199;-64
2021/11/06 08:07:35;;;;;;;25.92;17.32;;;;;;;9.34;78.76;95566.59;1655741;86;21132;-65
2021/11/06 08:10:05;;;;;;;26.77;17.55;;;;;;;9.33;78.50;95571.91;1655761;86;21095;-64
2021/11/06 08:12:33;;;;;;;27.87;18.73;;;;;;;9.37;78.76;95579.48;1654882;86;21065;-64
2021/11/06 08:15:00;;;;;;;32.08;18.67;;;;;;;9.49;78.31;95576.14;1656202;86;21172;-64
2021/11/06 08:17:29;;;;;;;28.70;19.07;;;;;;;9.59;77.75;95578.70;1656215;86;21580;-65
2021/11/06 08:19:56;;;;;;;26.45;17.20;;;;;;;9.68;76.86;95576.77;1656390;86;21075;-65
2021/11/06 08:22:23;;;;;;;26.68;16.85;;;;;;;9.71;76.67;95573.17;1656035;84;21018;-65
2021/11/06 08:24:50;;;;;;;20.88;15.18;;;;;;;9.75;76.61;95562.89;1656208;86;21017;-64
2021/11/06 08:27:16;;;;;;;20.90;14.60;;;;;;;9.75;76.37;95567.02;1633552;86;21058;-65
2021/11/06 08:29:44;;;;;;;25.72;18.23;;;;;;;9.70;75.67;95568.88;1656216;86;21159;-64
2021/11/06 08:32:10;;;;;;;17.25;13.80;;;;;;;9.60;75.99;95571.24;1656180;86;21011;-64
2021/11/06 08:34:39;;;;;;;21.42;15.28;;;;;;;9.62;76.29;95579.84;1656307;86;21043;-63
2021/11/06 08:37:05;;;;;;;25.40;15.80;;;;;;;9.59;76.11;95575.19;1648735;85;21050;-63
2021/11/06 08:39:32;;;;;;;19.35;14.70;;;;;;;9.55;76.07;95573.08;1657103;86;21586;-64
2021/11/06 08:42:00;;;;;;;22.20;14.45;;;;;;;9.60;76.12;95573.98;1656408;85;21773;-63
2021/11/06 08:44:28;;;;;;;20.97;14.07;;;;;;;9.66;76.22;95575.05;1642501;86;21026;-65
2021/11/06 08:46:55;;;;;;;21.30;14.65;;;;;;;9.72;76.12;95572.77;1656452;86;21054;-65
2021/11/06 08:49:22;;;;;;;24.40;16.82;;;;;;;9.81;75.90;95568.09;1649213;86;21071;-63
2021/11/06 08:51:51;;;;;;;21.00;14.58;;;;;;;9.86;75.79;95564.84;1653296;86;21019;-65
2021/11/06 08:54:19;;;;;;;23.22;16.40;;;;;;;9.88;75.34;95561.86;1649719;86;21160;-63
2021/11/06 08:56:46;;;;;;;22.55;15.72;;;;;;;9.90;75.05;95569.67;1656245;86;21043;-63
2021/11/06 08:59:15;;;;;;;23.00;15.03;;;;;;;10.00;75.31;95560.45;1656109;86;21042;-63
2021/11/06 09:01:44;;;;;;;21.85;15.80;;;;;;;10.09;74.75;95562.05;1656233;86;21101;-64
2021/11/06 09:04:12;;;;;;;21.48;15.90;;;;;;;10.13;74.36;95562.77;1656136;86;21508;-64
2021/11/06 09:06:41;;;;;;;19.02;14.70;;;;;;;10.22;74.36;95567.09;1656180;86;21220;-63
2021/11/06 09:09:10;;;;;;;22.10;14.50;;;;;;;10.25;74.02;95560.73;1653571;86;21451;-63
2021/11/06 09:11:37;;;;;;;21.40;15.15;;;;;;;10.28;74.00;95562.05;1656294;86;21051;-63
2021/11/06 09:14:05;;;;;;;21.17;15.18;;;;;;;10.29;73.61;95555.34;1656545;86;21027;-63
2021/11/06 09:16:32;;;;;;;21.00;15.78;;;;;;;10.32;73.17;95564.73;1656181;86;21053;-64
2021/11/06 09:19:01;;;;;;;19.82;15.10;;;;;;;10.32;73.31;95568.85;1656278;86;21105;-64
2021/11/06 09:21:29;;;;;;;18.80;14.35;;;;;;;10.36;73.40;95560.67;1655686;84;21093;-65
2021/11/06 09:24:01;;;;;;;18.15;14.13;;;;;;;10.42;73.03;95563.13;1656214;86;21542;-63
2021/11/06 09:26:26;;;;;;;19.80;13.72;;;;;;;10.43;72.49;95563.88;1656242;86;20996;-63
2021/11/06 09:28:55;;;;;;;24.35;17.48;;;;;;;10.46;72.20;95568.53;1656343;86;21519;-64
2021/11/06 09:31:22;;;;;;;29.67;21.55;;;;;;;10.48;72.42;95564.75;1661724;86;21825;-67
2021/11/06 09:33:49;;;;;;;26.35;19.48;;;;;;;10.49;72.48;95564.33;1656516;86;20983;-64
2021/11/06 09:36:16;;;;;;;28.12;18.65;;;;;;;10.50;72.62;95565.13;1655234;86;21077;-65
2021/11/06 09:38:43;;;;;;;24.65;15.85;;;;;;;10.52;72.87;95564.09;1653801;85;21688;-63
2021/11/06 09:41:12;;;;;;;22.58;15.18;;;;;;;10.58;72.80;95563.75;1634877;85;21549;-63
2021/11/06 09:43:39;;;;;;;18.32;14.98;;;;;;;10.61;72.70;95563.68;1656820;85;21134;-64
2021/11/06 09:46:09;;;;;;;22.52;15.53;;;;;;;10.66;72.92;95560.41;1655785;86;21022;-65
2021/11/06 09:48:36;;;;;;;21.37;15.65;;;;;;;10.65;72.29;95562.20;1655991;86;21022;-64
2021/11/06 09:51:03;;;;;;;22.85;15.98;;;;;;;10.60;72.50;95548.96;1634970;86;21068;-64
2021/11/06 09:53:32;;;;;;;23.55;15.18;;;;;;;10.61;72.20;95556.02;1655721;86;21121;-64
2021/11/06 09:55:59;;;;;;;23.20;16.10;;;;;;;10.58;72.55;95559.03;1656310;86;21796;-64
2021/11/06 09:58:26;;;;;;;29.95;17.95;;;;;;;10.60;72.13;95561.34;1656062;86;21022;-64
2021/11/06 10:00:53;;;;;;;19.05;14.30;;;;;;;10.67;71.71;95558.42;1656181;86;21548;-63
2021/11/06 10:03:19;;;;;;;18.12;14.07;;;;;;;10.75;71.66;95558.63;1656643;85;21109;-64
2021/11/06 10:05:52;;;;;;;17.45;14.15;;;;;;;10.89;71.06;95565.18;1609920;86;21537;-65
2021/11/06 10:08:22;;;;;;;25.17;13.70;;;;;;;11.05;70.61;95564.41;1655671;86;21865;-63
2021/11/06 10:10:52;;;;;;;22.87;15.03;;;;;;;11.23;70.01;95564.16;1654968;86;22163;-63
2021/11/06 10:13:20;;;;;;;27.93;14.95;;;;;;;11.43;69.98;95553.81;1655030;86;21031;-63
2021/11/06 10:15:51;;;;;;;18.07;13.18;;;;;;;11.57;69.57;95557.58;1655831;86;21011;-63
2021/11/06 10:18:23;;;;;;;17.42;12.30;;;;;;;11.67;68.59;95559.30;1635188;86;21451;-65
2021/11/06 10:21:02;;;;;;;19.35;12.23;;;;;;;11.70;67.62;95561.80;1661020;84;21237;-65
2021/11/06 10:23:31;;;;;;;21.07;13.60;;;;;;;11.69;67.05;95565.14;1656980;86;21553;-63
2021/11/06 10:26:14;;;;;;;16.17;11.38;;;;;;;11.66;66.84;95562.48;1655492;86;20971;-63
2021/11/06 10:28:41;;;;;;;15.75;11.35;;;;;;;11.71;66.44;95553.08;1646558;86;21017;-64
2021/11/06 10:31:10;;;;;;;18.62;12.60;;;;;;;11.82;65.91;95545.31;1656246;86;21058;-64
2021/11/06 10:33:48;;;;;;;18.25;12.68;;;;;;;12.27;66.23;95525.29;1655401;86;21204;-64
2021/11/06 10:36:22;;;;;;;19.07;14.45;;;;;;;13.11;65.50;95522.70;1655320;86;21025;-63
2021/11/06 10:39:02;;;;;;;16.15;13.93;;;;;;;13.88;62.17;95526.95;1658963;85;21082;-63
2021/11/06 10:41:33;;;;;;;15.08;9.83;;;;;;;14.15;60.37;95532.70;1656280;85;21053;-64
2021/11/06 10:43:59;;;;;;;14.18;9.88;;;;;;;14.37;57.61;95523.17;1656409;86;20979;-63
2021/11/06 10:46:29;;;;;;;15.48;11.33;;;;;;;14.43;56.82;95510.91;1656250;86;21941;-64
2021/11/06 10:48:57;;;;;;;16.73;11.80;;;;;;;14.60;56.02;95526.23;1655604;86;21010;-63
2021/11/06 10:51:24;;;;;;;13.62;10.63;;;;;;;14.71;55.58;95522.45;1654993;86;21180;-64
2021/11/06 10:53:59;;;;;;;32.50;15.30;;;;;;;14.51;55.17;95512.35;1636832;85;21030;-63
2021/11/06 10:56:38;;;;;;;19.12;13.55;;;;;;;14.30;56.03;95507.44;1670812;85;21486;-64
2021/11/06 10:59:11;;;;;;;22.10;13.58;;;;;;;14.51;55.59;95502.66;1659793;85;21165;-64
2021/11/06 11:01:40;;;;;;;13.93;10.63;;;;;;;15.11;54.83;95501.64;1657512;85;21074;-64
2021/11/06 11:04:12;;;;;;;21.25;11.73;;;;;;;16.00;52.86;95501.02;1657656;86;21451;-64
2021/11/06 11:06:48;;;;;;;33.25;15.00;;;;;;;16.74;51.56;95506.13;1664385;85;21178;-63
2021/11/06 11:09:19;;;;;;;11.60;9.93;;;;;;;17.26;50.84;95497.89;1674014;85;21051;-62
2021/11/06 11:11:52;;;;;;;12.43;9.58;;;;;;;17.67;48.93;95501.21;1638116;85;21159;-64
2021/11/06 11:14:23;;;;;;;21.23;10.15;;;;;;;17.82;47.57;95497.86;1677713;85;21316;-63
2021/11/06 11:17:01;;;;;;;17.90;9.88;;;;;;;17.88;47.45;95491.77;1657482;85;21085;-62
2021/11/06 11:19:40;;;;;;;10.30;7.40;;;;;;;17.96;46.92;95492.93;1639530;86;21382;-63
2021/11/06 11:22:29;;;;;;;11.25;8.93;;;;;;;17.81;46.35;95490.75;1665673;85;21094;-63
2021/11/06 11:24:56;;;;;;;23.07;8.43;;;;;;;17.52;46.65;95493.42;1665195;85;21112;-66
2021/11/06 11:27:24;;;;;;;11.38;7.97;;;;;;;16.95;47.46;95500.20;1658427;85;21090;-63
2021/11/06 11:29:53;;;;;;;14.85;6.67;;;;;;;16.44;48.31;95500.22;1655143;85;21585;-64